createdAt,value
2022-11-07T00:00:35.904Z,15.56
2022-11-07T00:03:02.706Z,15.51
2022-11-07T00:05:29.412Z,15.50
2022-11-07T00:07:56.136Z,15.49
2022-11-07T00:10:22.734Z,15.46
2022-11-07T00:12:49.395Z,15.49
2022-11-07T00:15:16.052Z,15.46
2022-11-07T00:17:42.612Z,15.47
2022-11-07T00:20:09.823Z,15.50
2022-11-07T00:22:36.601Z,15.43
2022-11-07T00:25:03.620Z,15.50
2022-11-07T00:27:30.482Z,15.46
2022-11-07T00:29:57.302Z,15.47
2022-11-07T00:32:24.066Z,15.41
2022-11-07T00:34:50.897Z,15.35
2022-11-07T00:37:17.567Z,15.33
2022-11-07T00:39:44.272Z,15.28
2022-11-07T00:42:10.823Z,15.27
2022-11-07T00:44:37.412Z,15.35
2022-11-07T00:47:04.091Z,15.35
2022-11-07T00:49:30.684Z,15.25
2022-11-07T00:51:57.420Z,15.26
2022-11-07T00:54:24.288Z,15.28
2022-11-07T00:56:51.070Z,15.18
2022-11-07T00:59:18.060Z,15.20
2022-11-07T01:01:44.865Z,15.21
2022-11-07T01:04:31.345Z,15.20
2022-11-07T01:06:58.321Z,15.14
2022-11-07T01:09:25.014Z,15.13
2022-11-07T01:11:51.677Z,15.17
2022-11-07T01:14:21.313Z,15.07
2022-11-07T01:16:48.093Z,15.08
2022-11-07T01:19:15.178Z,15.05
2022-11-07T01:21:43.232Z,15.10
2022-11-07T01:24:11.927Z,15.09
2022-11-07T01:26:39.578Z,15.01
2022-11-07T01:29:06.830Z,14.98
2022-11-07T01:31:33.675Z,15.01
2022-11-07T01:34:00.926Z,15.00
2022-11-07T01:36:27.663Z,14.94
2022-11-07T01:38:54.836Z,14.98
2022-11-07T01:41:28.445Z,14.97
2022-11-07T01:44:07.020Z,14.94
2022-11-07T01:46:44.520Z,14.97
2022-11-07T01:49:26.034Z,14.91
2022-11-07T01:52:21.304Z,14.91
2022-11-07T01:54:50.416Z,14.93
2022-11-07T01:57:47.134Z,14.87
2022-11-07T02:00:17.633Z,14.85
2022-11-07T02:02:46.719Z,14.86
2022-11-07T02:05:24.445Z,14.98
2022-11-07T02:07:51.203Z,14.88
2022-11-07T02:10:18.576Z,14.85
2022-11-07T02:12:45.709Z,14.85
2022-11-07T02:15:12.502Z,14.88
2022-11-07T02:17:39.538Z,14.91
2022-11-07T02:20:06.805Z,14.84
2022-11-07T02:22:36.638Z,14.81
2022-11-07T02:25:07.476Z,14.82
2022-11-07T02:27:34.927Z,14.82
2022-11-07T02:30:06.836Z,14.80
2022-11-07T02:32:33.868Z,14.76
2022-11-07T02:35:07.425Z,14.83
2022-11-07T02:37:38.516Z,14.76
2022-11-07T02:40:09.605Z,14.73
2022-11-07T02:42:44.591Z,14.74
2022-11-07T02:45:15.951Z,14.76
2022-11-07T02:47:42.906Z,14.86
2022-11-07T02:50:11.530Z,14.82
2022-11-07T02:52:38.312Z,14.84
2022-11-07T02:55:06.356Z,14.83
2022-11-07T02:57:33.783Z,14.74
2022-11-07T03:00:00.889Z,14.82
2022-11-07T03:02:27.977Z,14.88
2022-11-07T03:04:54.651Z,14.88
2022-11-07T03:07:21.284Z,14.81
2022-11-07T03:09:47.869Z,14.89
2022-11-07T03:12:14.683Z,14.80
2022-11-07T03:14:50.259Z,14.77
2022-11-07T03:17:16.881Z,14.81
2022-11-07T03:19:43.543Z,14.75
2022-11-07T03:22:10.148Z,14.80
2022-11-07T03:24:36.871Z,14.77
2022-11-07T03:27:03.470Z,14.79
2022-11-07T03:29:30.106Z,14.78
2022-11-07T03:31:56.896Z,14.86
2022-11-07T03:34:23.631Z,14.75
2022-11-07T03:36:50.378Z,14.83
2022-11-07T03:39:19.515Z,14.85
2022-11-07T03:41:49.750Z,14.74
2022-11-07T03:44:16.347Z,14.62
2022-11-07T03:46:42.988Z,14.62
2022-11-07T03:49:09.606Z,14.66
2022-11-07T03:51:36.201Z,14.72
2022-11-07T03:54:02.972Z,14.74
2022-11-07T03:56:29.664Z,14.78
2022-11-07T03:58:56.411Z,14.67
2022-11-07T04:01:23.308Z,14.65
2022-11-07T04:03:55.194Z,14.70
2022-11-07T04:06:23.459Z,14.67
2022-11-07T04:08:50.112Z,14.61
2022-11-07T04:11:35.630Z,14.64
2022-11-07T04:14:20.713Z,14.70
2022-11-07T04:17:05.905Z,14.65
2022-11-07T04:19:33.886Z,14.55
2022-11-07T04:22:00.496Z,14.61
2022-11-07T04:24:27.401Z,14.64
2022-11-07T04:27:12.628Z,14.61
2022-11-07T04:29:39.234Z,14.66
2022-11-07T04:32:05.833Z,14.67
2022-11-07T04:34:32.375Z,14.63
2022-11-07T04:36:58.966Z,14.57
2022-11-07T04:39:25.793Z,14.68
2022-11-07T04:41:52.397Z,14.61
2022-11-07T04:44:19.007Z,14.61
2022-11-07T04:46:45.962Z,14.62
2022-11-07T04:49:15.176Z,14.57
2022-11-07T04:51:43.118Z,14.59
2022-11-07T04:54:16.261Z,14.56
2022-11-07T04:56:42.807Z,14.60
2022-11-07T04:59:09.387Z,14.54
2022-11-07T05:01:36.052Z,14.57
2022-11-07T05:04:02.694Z,14.52
2022-11-07T05:06:31.942Z,14.49
2022-11-07T05:08:58.575Z,14.47
2022-11-07T05:11:25.158Z,14.55
2022-11-07T05:13:51.774Z,14.57
2022-11-07T05:16:18.477Z,14.54
2022-11-07T05:18:45.699Z,14.68
2022-11-07T05:21:12.264Z,14.80
2022-11-07T05:23:39.000Z,14.71
2022-11-07T05:26:05.826Z,14.67
2022-11-07T05:28:38.651Z,14.61
2022-11-07T05:31:07.693Z,14.53
2022-11-07T05:33:35.171Z,14.53
2022-11-07T05:36:10.393Z,14.59
2022-11-07T05:38:37.293Z,14.53
2022-11-07T05:41:04.671Z,14.49
2022-11-07T05:43:31.412Z,14.46
2022-11-07T05:46:01.650Z,14.46
2022-11-07T05:48:28.629Z,14.58
2022-11-07T05:50:55.185Z,14.61
2022-11-07T05:53:21.905Z,14.48
2022-11-07T05:55:48.835Z,14.54
2022-11-07T05:58:15.432Z,14.44
2022-11-07T06:00:42.159Z,14.48
2022-11-07T06:03:09.427Z,14.53
2022-11-07T06:05:39.030Z,14.53
2022-11-07T06:08:15.868Z,14.48
2022-11-07T06:10:43.280Z,14.52
2022-11-07T06:13:13.592Z,14.47
2022-11-07T06:15:41.050Z,14.49
2022-11-07T06:18:11.267Z,14.42
2022-11-07T06:20:38.009Z,14.46
2022-11-07T06:23:06.088Z,14.41
2022-11-07T06:25:33.375Z,14.37
2022-11-07T06:28:06.174Z,14.35
2022-11-07T06:30:33.059Z,14.42
2022-11-07T06:33:09.105Z,14.40
2022-11-07T06:35:35.874Z,14.43
2022-11-07T06:38:04.034Z,14.42
2022-11-07T06:40:31.277Z,14.41
2022-11-07T06:43:10.732Z,14.42
2022-11-07T06:45:38.134Z,14.37
2022-11-07T06:48:05.489Z,14.38
2022-11-07T06:50:32.419Z,14.44
2022-11-07T06:53:03.950Z,14.43
2022-11-07T06:55:30.548Z,14.43
2022-11-07T06:58:01.508Z,14.35
2022-11-07T07:00:30.216Z,14.39
2022-11-07T07:02:58.862Z,14.44
2022-11-07T07:05:26.295Z,14.39
2022-11-07T07:07:54.933Z,14.36
2022-11-07T07:10:21.541Z,14.37
2022-11-07T07:12:48.107Z,14.35
2022-11-07T07:15:14.762Z,14.40
2022-11-07T07:17:41.403Z,14.41
2022-11-07T07:20:08.711Z,14.37
2022-11-07T07:22:35.275Z,14.42
2022-11-07T07:25:01.917Z,14.41
2022-11-07T07:27:28.486Z,14.37
2022-11-07T07:29:54.980Z,14.24
2022-11-07T07:32:25.157Z,14.31
2022-11-07T07:34:52.265Z,14.36
2022-11-07T07:37:19.202Z,14.26
2022-11-07T07:39:45.999Z,14.32
2022-11-07T07:42:12.763Z,14.31
2022-11-07T07:44:44.357Z,14.31
2022-11-07T07:47:11.665Z,14.26
2022-11-07T07:49:38.892Z,14.31
2022-11-07T07:52:05.800Z,14.31
2022-11-07T07:54:32.450Z,14.26
2022-11-07T07:56:59.295Z,14.26
2022-11-07T07:59:25.917Z,14.22
2022-11-07T08:01:56.916Z,14.19
2022-11-07T08:04:24.282Z,14.27
2022-11-07T08:06:50.900Z,14.26
2022-11-07T08:09:19.368Z,14.25
2022-11-07T08:11:45.907Z,14.20
2022-11-07T08:14:12.440Z,14.23
2022-11-07T08:16:38.954Z,14.21
2022-11-07T08:19:05.534Z,14.25
2022-11-07T08:21:32.228Z,14.20
2022-11-07T08:23:59.105Z,14.21
2022-11-07T08:26:26.234Z,14.22
2022-11-07T08:28:54.110Z,14.20
2022-11-07T08:31:21.063Z,14.20
2022-11-07T08:33:47.779Z,14.35
2022-11-07T08:36:14.648Z,14.42
2022-11-07T08:38:41.410Z,14.50
2022-11-07T08:41:08.163Z,14.69
2022-11-07T08:43:34.755Z,14.72
2022-11-07T08:46:01.395Z,14.73
2022-11-07T08:48:28.063Z,14.72
2022-11-07T08:50:56.820Z,14.62
2022-11-07T08:53:24.187Z,14.65
2022-11-07T08:55:51.270Z,14.68
2022-11-07T08:58:19.274Z,14.73
2022-11-07T09:00:46.332Z,14.79
2022-11-07T09:06:00.727Z,15.10
2022-11-07T09:08:27.451Z,15.19
2022-11-07T09:10:54.468Z,15.26
2022-11-07T09:13:21.248Z,15.31
2022-11-07T09:15:51.384Z,15.41
2022-11-07T09:18:18.449Z,15.51
2022-11-07T09:20:45.722Z,15.59
2022-11-07T09:23:12.251Z,15.64
2022-11-07T09:25:38.872Z,15.67
2022-11-07T09:28:05.753Z,15.61
2022-11-07T09:30:32.685Z,15.66
2022-11-07T09:32:59.800Z,15.67
2022-11-07T09:35:26.506Z,15.69
2022-11-07T09:37:53.292Z,15.70
2022-11-07T09:40:19.858Z,15.73
2022-11-07T09:43:00.914Z,15.76
2022-11-07T09:45:29.828Z,15.75
2022-11-07T09:48:21.736Z,15.83
2022-11-07T09:50:50.444Z,15.81
2022-11-07T09:53:28.940Z,15.94
2022-11-07T09:56:00.958Z,15.94
2022-11-07T09:58:36.748Z,15.93
2022-11-07T10:01:06.734Z,15.97
2022-11-07T10:03:36.757Z,15.96
2022-11-07T10:06:12.680Z,16.04
2022-11-07T10:08:48.110Z,16.04
2022-11-07T10:11:39.491Z,16.03
2022-11-07T10:14:19.817Z,16.09
2022-11-07T10:16:54.363Z,16.11
2022-11-07T10:19:26.772Z,16.13
2022-11-07T10:22:17.920Z,16.14
2022-11-07T10:25:19.290Z,16.12
2022-11-07T10:27:54.683Z,16.21
2022-11-07T10:30:22.124Z,16.22
2022-11-07T10:33:13.335Z,16.29
2022-11-07T10:35:48.242Z,16.30
2022-11-07T10:38:25.101Z,16.33
2022-11-07T10:40:52.685Z,16.41
2022-11-07T10:43:49.707Z,16.39
2022-11-07T10:46:24.950Z,16.36
2022-11-07T10:49:00.112Z,16.41
2022-11-07T10:51:38.036Z,16.41
2022-11-07T10:54:06.139Z,16.44
2022-11-07T10:56:51.270Z,16.46
2022-11-07T10:59:31.418Z,16.46
2022-11-07T11:02:02.157Z,16.46
2022-11-07T11:04:32.491Z,16.51
2022-11-07T11:07:11.148Z,16.47
2022-11-07T11:09:37.713Z,16.51
2022-11-07T11:12:13.359Z,16.53
2022-11-07T11:14:40.494Z,16.55
2022-11-07T11:17:29.083Z,16.53
2022-11-07T11:19:56.254Z,16.57
2022-11-07T11:22:25.711Z,16.71
2022-11-07T11:25:19.217Z,16.64
2022-11-07T11:27:48.822Z,16.60
2022-11-07T11:30:17.820Z,16.62
2022-11-07T11:32:55.940Z,16.62
2022-11-07T11:35:42.562Z,16.63
2022-11-07T11:38:29.652Z,16.70
2022-11-07T11:41:07.575Z,16.68
2022-11-07T11:43:45.591Z,16.66
2022-11-07T11:46:36.796Z,16.74
2022-11-07T11:49:15.395Z,16.68
2022-11-07T11:51:58.798Z,16.71
2022-11-07T11:54:25.591Z,16.67
2022-11-07T11:57:04.442Z,16.70
2022-11-07T11:59:58.738Z,16.71
2022-11-07T12:02:46.685Z,16.79
2022-11-07T12:06:01.781Z,16.74
2022-11-07T12:08:47.915Z,16.77
2022-11-07T12:11:20.509Z,16.78
2022-11-07T12:14:11.217Z,16.77
2022-11-07T12:17:09.396Z,16.82
2022-11-07T12:20:18.316Z,16.83
2022-11-07T12:22:55.945Z,16.83
2022-11-07T12:25:50.927Z,16.91
2022-11-07T12:28:40.360Z,16.87
2022-11-07T12:31:24.560Z,16.90
2022-11-07T12:34:20.587Z,16.91
2022-11-07T12:37:11.498Z,16.88
2022-11-07T12:40:12.602Z,16.95
2022-11-07T12:43:03.248Z,16.93
2022-11-07T12:45:32.858Z,16.98
2022-11-07T12:48:23.655Z,16.94
2022-11-07T12:51:09.411Z,16.93
2022-11-07T12:53:50.868Z,16.97
2022-11-07T12:56:27.454Z,17.03
2022-11-07T12:58:54.431Z,16.95
2022-11-07T13:01:30.956Z,17.02
2022-11-07T13:04:26.652Z,17.00
2022-11-07T13:07:05.513Z,17.04
2022-11-07T13:09:41.036Z,17.05
2022-11-07T13:12:07.916Z,17.06
2022-11-07T13:14:40.009Z,17.09
2022-11-07T13:17:24.954Z,17.10
2022-11-07T13:20:01.767Z,17.15
2022-11-07T13:22:37.813Z,17.12
2022-11-07T13:25:17.043Z,17.14
2022-11-07T13:28:01.353Z,17.14
2022-11-07T13:30:30.721Z,17.18
2022-11-07T13:32:58.930Z,17.19
2022-11-07T13:35:28.298Z,17.20
2022-11-07T13:38:03.271Z,17.21
2022-11-07T13:40:36.080Z,17.20
2022-11-07T13:43:18.543Z,17.16
2022-11-07T13:45:45.539Z,17.28
2022-11-07T13:48:19.709Z,17.28
2022-11-07T13:51:08.648Z,17.23
2022-11-07T13:53:46.810Z,17.25
2022-11-07T13:56:40.994Z,17.32
2022-11-07T13:59:16.380Z,17.25
2022-11-07T14:01:45.422Z,17.27
2022-11-07T14:04:18.233Z,17.26
2022-11-07T14:06:45.518Z,17.23
2022-11-07T14:09:16.330Z,17.31
2022-11-07T14:11:43.770Z,17.31
2022-11-07T14:14:10.905Z,17.33
2022-11-07T14:16:38.461Z,17.38
2022-11-07T14:19:14.872Z,17.32
2022-11-07T14:21:44.934Z,17.34
2022-11-07T14:24:29.582Z,17.32
2022-11-07T14:27:04.260Z,17.35
2022-11-07T14:29:31.359Z,17.31
2022-11-07T14:32:03.222Z,17.34
2022-11-07T14:34:29.882Z,17.32
2022-11-07T14:37:01.157Z,17.36
2022-11-07T14:39:30.956Z,17.35
2022-11-07T14:42:01.219Z,17.37
2022-11-07T14:47:28.839Z,17.47
2022-11-07T14:49:58.711Z,17.40
2022-11-07T14:52:30.550Z,17.38
2022-11-07T14:55:08.372Z,17.47
2022-11-07T14:57:38.035Z,17.45
2022-11-07T15:00:14.027Z,17.36
2022-11-07T15:02:41.350Z,17.40
2022-11-07T15:05:30.577Z,17.59
2022-11-07T15:07:58.596Z,17.55
2022-11-07T15:10:35.450Z,17.51
2022-11-07T15:13:26.304Z,17.59
2022-11-07T15:16:00.362Z,17.51
2022-11-07T15:18:28.424Z,17.53
2022-11-07T15:21:02.071Z,17.50
2022-11-07T15:23:35.895Z,17.52
2022-11-07T15:26:08.075Z,17.54
2022-11-07T15:28:52.594Z,17.53
2022-11-07T15:31:28.444Z,17.54
2022-11-07T15:33:57.195Z,17.52
2022-11-07T15:36:25.104Z,17.50
2022-11-07T15:38:52.667Z,17.47
2022-11-07T15:41:20.642Z,17.49
2022-11-07T15:43:47.278Z,17.61
2022-11-07T15:46:35.160Z,17.54
2022-11-07T15:49:02.638Z,17.52
2022-11-07T15:51:30.476Z,17.57
2022-11-07T15:53:57.880Z,17.64
2022-11-07T15:56:26.090Z,17.69
2022-11-07T15:58:54.656Z,17.72
2022-11-07T16:01:22.573Z,17.77
2022-11-07T16:03:49.379Z,17.77
2022-11-07T16:06:28.225Z,17.77
2022-11-07T16:08:55.198Z,17.82
2022-11-07T16:11:22.334Z,17.89
2022-11-07T16:13:50.853Z,17.93
2022-11-07T16:16:24.394Z,17.97
2022-11-07T16:18:52.951Z,17.94
2022-11-07T16:21:20.558Z,17.94
2022-11-07T16:23:49.995Z,17.90
2022-11-07T16:26:28.220Z,17.87
2022-11-07T16:28:54.844Z,17.86
2022-11-07T16:31:21.537Z,17.84
2022-11-07T16:33:48.224Z,17.86
2022-11-07T16:36:26.543Z,17.82
2022-11-07T16:38:53.185Z,17.76
2022-11-07T16:41:20.011Z,17.74
2022-11-07T16:43:47.370Z,17.72
2022-11-07T16:46:19.947Z,17.74
2022-11-07T16:48:48.966Z,17.67
2022-11-07T16:51:18.570Z,17.71
2022-11-07T16:53:45.738Z,17.69
2022-11-07T16:56:23.057Z,17.68
2022-11-07T16:58:49.915Z,17.71
2022-11-07T17:01:16.767Z,17.84
2022-11-07T17:03:43.592Z,17.89
2022-11-07T17:06:18.064Z,17.92
2022-11-07T17:08:45.235Z,17.97
2022-11-07T17:11:17.107Z,18.01
2022-11-07T17:13:44.909Z,18.11
2022-11-07T17:16:24.168Z,18.11
2022-11-07T17:18:52.375Z,18.16
2022-11-07T17:21:30.427Z,18.17
2022-11-07T17:23:59.447Z,18.11
2022-11-07T17:26:29.778Z,18.13
2022-11-07T17:28:57.629Z,18.11
2022-11-07T17:31:25.145Z,18.12
2022-11-07T17:33:51.981Z,18.15
2022-11-07T17:36:30.816Z,18.13
2022-11-07T17:39:08.097Z,18.17
2022-11-07T17:41:34.640Z,18.16
2022-11-07T17:44:01.379Z,18.21
2022-11-07T17:46:30.753Z,18.29
2022-11-07T17:48:58.480Z,18.35
2022-11-07T17:51:26.748Z,18.36
2022-11-07T17:53:57.556Z,18.38
2022-11-07T17:56:29.670Z,18.41
2022-11-07T17:58:59.201Z,18.45
2022-11-07T18:01:28.697Z,18.49
2022-11-07T18:03:55.867Z,18.49
2022-11-07T18:06:23.816Z,18.52
2022-11-07T18:08:55.991Z,18.47
2022-11-07T18:11:25.690Z,18.44
2022-11-07T18:13:54.046Z,18.44
2022-11-07T18:16:27.021Z,18.43
2022-11-07T18:18:53.659Z,18.42
2022-11-07T18:21:20.808Z,18.32
2022-11-07T18:23:47.372Z,18.34
2022-11-07T18:26:17.300Z,18.30
2022-11-07T18:28:44.272Z,18.31
2022-11-07T18:31:19.566Z,18.28
2022-11-07T18:33:47.478Z,18.21
2022-11-07T18:36:18.188Z,18.25
2022-11-07T18:38:45.395Z,18.25
2022-11-07T18:41:20.467Z,18.21
2022-11-07T18:43:47.832Z,18.18
2022-11-07T18:46:16.514Z,18.27
2022-11-07T18:48:43.411Z,18.15
2022-11-07T18:51:17.535Z,18.20
2022-11-07T18:53:45.069Z,18.20
2022-11-07T18:56:13.148Z,18.18
2022-11-07T18:58:43.637Z,18.20
2022-11-07T19:01:13.611Z,18.26
2022-11-07T19:03:41.758Z,18.19
2022-11-07T19:06:11.260Z,18.17
2022-11-07T19:08:40.787Z,18.20
2022-11-07T19:11:11.677Z,18.20
2022-11-07T19:13:43.943Z,18.17
2022-11-07T19:16:12.953Z,18.14
2022-11-07T19:18:39.549Z,18.17
2022-11-07T19:21:06.283Z,18.10
2022-11-07T19:23:36.300Z,18.12
2022-11-07T19:26:04.281Z,18.15
2022-11-07T19:28:30.857Z,18.16
2022-11-07T19:30:58.101Z,18.15
2022-11-07T19:33:24.831Z,18.17
2022-11-07T19:36:00.105Z,18.17
2022-11-07T19:38:27.860Z,18.10
2022-11-07T19:40:54.476Z,18.14
2022-11-07T19:43:21.039Z,18.16
2022-11-07T19:45:48.153Z,18.16
2022-11-07T19:48:16.659Z,18.09
2022-11-07T19:50:43.167Z,18.09
2022-11-07T19:53:09.801Z,18.12
2022-11-07T19:55:37.446Z,18.10
2022-11-07T19:58:04.133Z,18.04
2022-11-07T20:00:30.778Z,18.06
2022-11-07T20:02:57.891Z,18.11
2022-11-07T20:05:24.568Z,18.09
2022-11-07T20:07:55.389Z,18.02
2022-11-07T20:10:23.785Z,18.01
2022-11-07T20:12:50.463Z,17.95
2022-11-07T20:15:17.454Z,17.95
2022-11-07T20:17:44.053Z,17.93
2022-11-07T20:20:13.644Z,17.89
2022-11-07T20:22:46.555Z,17.77
2022-11-07T20:25:13.552Z,17.70
2022-11-07T20:27:40.424Z,17.71
2022-11-07T20:30:07.974Z,17.76
2022-11-07T20:32:34.673Z,17.77
2022-11-07T20:35:01.273Z,17.76
2022-11-07T20:37:27.997Z,17.73
2022-11-07T20:39:54.803Z,17.64
2022-11-07T20:42:21.548Z,17.64
2022-11-07T20:44:49.879Z,17.67
2022-11-07T20:47:17.352Z,17.72
2022-11-07T20:49:44.325Z,17.72
2022-11-07T20:52:10.941Z,17.77
2022-11-07T20:54:37.764Z,17.77
2022-11-07T20:57:05.058Z,17.75
2022-11-07T20:59:32.028Z,17.78
2022-11-07T21:02:03.664Z,17.82
2022-11-07T21:04:44.609Z,17.85
2022-11-07T21:07:19.920Z,17.83
2022-11-07T21:09:46.881Z,17.83
2022-11-07T21:12:14.175Z,17.82
2022-11-07T21:14:42.235Z,17.83
2022-11-07T21:17:10.000Z,17.83
2022-11-07T21:19:37.142Z,17.84
2022-11-07T21:22:04.360Z,17.78
2022-11-07T21:24:31.842Z,17.71
2022-11-07T21:26:59.093Z,17.76
2022-11-07T21:29:29.534Z,17.64
2022-11-07T21:31:56.985Z,17.53
2022-11-07T21:34:24.148Z,17.43
2022-11-07T21:36:50.800Z,17.39
2022-11-07T21:39:17.897Z,17.40
2022-11-07T21:41:44.610Z,17.41
2022-11-07T21:44:12.334Z,17.40
2022-11-07T21:46:39.201Z,17.46
2022-11-07T21:49:06.318Z,17.52
2022-11-07T21:51:36.846Z,17.50
2022-11-07T21:54:04.839Z,17.48
2022-11-07T21:56:34.220Z,17.41
2022-11-07T21:59:05.527Z,17.35
2022-11-07T22:01:37.175Z,17.37
2022-11-07T22:04:08.568Z,17.41
2022-11-07T22:06:38.422Z,17.39
2022-11-07T22:09:06.952Z,17.38
2022-11-07T22:11:33.734Z,17.21
2022-11-07T22:14:00.499Z,17.28
2022-11-07T22:16:27.343Z,17.26
2022-11-07T22:18:54.032Z,17.26
2022-11-07T22:21:23.263Z,17.35
2022-11-07T22:23:50.573Z,17.23
2022-11-07T22:26:25.606Z,17.21
2022-11-07T22:28:52.993Z,17.14
2022-11-07T22:31:25.176Z,17.17
2022-11-07T22:33:53.249Z,17.17
2022-11-07T22:36:20.673Z,17.08
2022-11-07T22:38:47.303Z,17.06
2022-11-07T22:41:17.585Z,17.13
2022-11-07T22:43:44.509Z,17.06
2022-11-07T22:46:13.565Z,17.07
2022-11-07T22:48:40.952Z,16.93
2022-11-07T22:51:13.212Z,16.98
2022-11-07T22:53:40.589Z,16.92
2022-11-07T22:56:12.433Z,16.92
2022-11-07T22:58:40.123Z,16.85
2022-11-07T23:01:17.213Z,16.77
2022-11-07T23:03:44.612Z,16.80
2022-11-07T23:06:11.337Z,16.79
2022-11-07T23:08:38.648Z,16.73
2022-11-07T23:11:45.306Z,16.75
2022-11-07T23:14:00.602Z,16.74
2022-11-07T23:16:32.796Z,16.65
2022-11-07T23:19:02.633Z,16.74
2022-11-07T23:21:29.751Z,16.66
2022-11-07T23:23:58.625Z,16.69
2022-11-07T23:26:32.623Z,16.70
2022-11-07T23:29:21.059Z,16.72
2022-11-07T23:31:49.920Z,16.61
2022-11-07T23:34:18.410Z,16.57
2022-11-07T23:36:45.167Z,16.64
2022-11-07T23:39:15.956Z,16.71
2022-11-07T23:41:43.113Z,16.64
2022-11-07T23:44:10.541Z,16.62
2022-11-07T23:46:55.956Z,16.47
2022-11-07T23:49:41.942Z,16.49
2022-11-07T23:52:09.002Z,16.56
2022-11-07T23:54:54.127Z,16.47
2022-11-07T23:57:20.775Z,16.53
